createdAt,value
2018-12-15T00:01:51.724Z,12.13
2018-12-15T00:04:19.832Z,9.65
2018-12-15T00:06:47.952Z,9.38
2018-12-15T00:09:16.112Z,9.78
2018-12-15T00:11:44.219Z,9.78
2018-12-15T00:14:12.342Z,8.83
2018-12-15T00:16:40.571Z,8.50
2018-12-15T00:19:08.696Z,8.63
2018-12-15T00:21:36.788Z,8.08
2018-12-15T00:24:04.937Z,9.35
2018-12-15T00:26:33.046Z,8.23
2018-12-15T00:29:01.169Z,5.97
2018-12-15T00:31:29.328Z,4.30
2018-12-15T00:33:57.441Z,6.28
2018-12-15T00:36:25.544Z,6.70
2018-12-15T00:38:53.721Z,5.97
2018-12-15T00:41:21.867Z,5.58
2018-12-15T00:43:49.976Z,7.58
2018-12-15T00:46:18.132Z,5.17
2018-12-15T00:48:46.268Z,5.00
2018-12-15T00:51:14.380Z,4.83
2018-12-15T00:53:42.535Z,4.95
2018-12-15T00:56:10.704Z,5.58
2018-12-15T00:58:38.796Z,5.33
2018-12-15T01:01:07.007Z,4.95
2018-12-15T01:03:35.146Z,4.80
2018-12-15T01:06:03.305Z,4.17
2018-12-15T01:08:31.720Z,5.95
2018-12-15T01:10:59.826Z,4.78
2018-12-15T01:13:27.940Z,3.75
2018-12-15T01:15:56.101Z,4.87
2018-12-15T01:18:24.172Z,5.10
2018-12-15T01:20:52.360Z,5.42
2018-12-15T01:23:20.519Z,4.12
2018-12-15T01:25:48.648Z,5.33
2018-12-15T01:28:16.760Z,4.90
2018-12-15T01:30:45.079Z,5.15
2018-12-15T01:33:13.220Z,4.83
2018-12-15T01:35:41.326Z,4.08
2018-12-15T01:38:09.476Z,5.00
2018-12-15T01:40:37.640Z,4.85
2018-12-15T01:43:05.728Z,5.58
2018-12-15T01:45:33.772Z,4.62
2018-12-15T01:50:32.532Z,5.10
2018-12-15T01:53:00.640Z,5.83
2018-12-15T01:55:28.748Z,5.53
2018-12-15T01:57:56.909Z,5.28
2018-12-15T02:00:25.080Z,5.62
2018-12-15T02:02:53.279Z,5.70
2018-12-15T02:05:21.459Z,6.17
2018-12-15T02:07:49.635Z,6.67
2018-12-15T02:10:17.748Z,7.37
2018-12-15T02:12:45.855Z,6.30
2018-12-15T02:15:14.092Z,5.33
2018-12-15T02:17:42.152Z,6.55
2018-12-15T02:20:10.251Z,6.30
2018-12-15T02:22:38.404Z,5.47
2018-12-15T02:25:06.504Z,7.05
2018-12-15T02:27:34.733Z,6.75
2018-12-15T02:30:02.887Z,5.60
2018-12-15T02:32:31.076Z,7.70
2018-12-15T02:34:59.180Z,5.75
2018-12-15T02:37:29.293Z,6.30
2018-12-15T02:39:57.405Z,6.10
2018-12-15T02:42:25.704Z,6.90
2018-12-15T02:44:54.040Z,5.55
2018-12-15T02:47:22.156Z,6.05
2018-12-15T02:49:50.256Z,7.67
2018-12-15T02:52:18.412Z,6.10
2018-12-15T02:54:46.516Z,5.97
2018-12-15T02:57:14.635Z,5.70
2018-12-15T02:59:42.856Z,7.25
2018-12-15T03:02:10.964Z,7.67
2018-12-15T03:04:39.147Z,6.15
2018-12-15T03:07:07.300Z,6.60
2018-12-15T03:09:35.415Z,7.30
2018-12-15T03:12:03.562Z,6.28
2018-12-15T03:14:31.703Z,7.97
2018-12-15T03:17:05.563Z,8.90
2018-12-15T03:19:34.009Z,6.28
2018-12-15T03:22:02.124Z,6.10
2018-12-15T03:24:30.225Z,6.80
2018-12-15T03:26:58.353Z,7.05
2018-12-15T03:29:26.497Z,7.42
2018-12-15T03:31:54.606Z,8.20
2018-12-15T03:34:22.711Z,6.80
2018-12-15T03:36:50.868Z,6.42
2018-12-15T03:39:18.962Z,6.30
2018-12-15T03:41:47.183Z,7.55
2018-12-15T03:44:15.321Z,8.10
2018-12-15T03:46:43.427Z,7.40
2018-12-15T03:49:11.526Z,7.22
2018-12-15T03:51:39.720Z,7.83
2018-12-15T03:54:08.000Z,6.90
2018-12-15T03:56:36.136Z,8.33
2018-12-15T03:59:04.234Z,7.08
2018-12-15T04:01:32.389Z,8.78
2018-12-15T04:04:00.497Z,7.30
2018-12-15T04:06:28.649Z,7.20
2018-12-15T04:08:56.792Z,7.33
2018-12-15T04:11:24.901Z,6.60
2018-12-15T04:13:53.048Z,8.65
2018-12-15T04:16:21.188Z,7.42
2018-12-15T04:18:49.337Z,6.87
2018-12-15T04:21:17.460Z,7.60
2018-12-15T04:23:45.567Z,8.05
2018-12-15T04:26:13.660Z,7.22
2018-12-15T04:28:41.781Z,8.73
2018-12-15T04:31:10.132Z,7.83
2018-12-15T04:33:38.259Z,8.28
2018-12-15T04:36:15.884Z,8.33
2018-12-15T04:38:44.010Z,8.60
2018-12-15T04:41:12.167Z,8.55
2018-12-15T04:43:40.400Z,7.97
2018-12-15T04:46:08.572Z,7.78
2018-12-15T04:48:36.716Z,8.08
2018-12-15T04:51:04.884Z,7.65
2018-12-15T04:53:32.999Z,7.35
2018-12-15T04:56:01.137Z,9.08
2018-12-15T04:58:29.339Z,7.97
2018-12-15T05:00:57.537Z,7.60
2018-12-15T05:03:25.664Z,8.20
2018-12-15T05:05:53.848Z,7.95
2018-12-15T05:08:21.966Z,9.00
2018-12-15T05:10:50.091Z,9.20
2018-12-15T05:13:18.244Z,8.98
2018-12-15T05:15:46.351Z,9.88
2018-12-15T05:18:18.151Z,8.60
2018-12-15T05:20:44.686Z,7.95
2018-12-15T05:23:12.784Z,9.78
2018-12-15T05:25:41.057Z,7.22
2018-12-15T05:28:09.181Z,9.75
2018-12-15T05:30:37.296Z,8.23
2018-12-15T05:33:05.632Z,8.50
2018-12-15T05:35:33.752Z,8.33
2018-12-15T05:38:01.852Z,8.05
2018-12-15T05:40:30.139Z,8.90
2018-12-15T05:42:58.255Z,8.55
2018-12-15T05:45:26.323Z,7.85
2018-12-15T05:47:54.561Z,8.45
2018-12-15T05:50:22.696Z,9.00
2018-12-15T05:52:50.872Z,8.85
2018-12-15T05:55:19.991Z,8.15
2018-12-15T05:57:48.300Z,7.90
2018-12-15T06:00:16.433Z,7.95
2018-12-15T06:02:44.607Z,8.00
2018-12-15T06:05:12.904Z,10.40
2018-12-15T06:07:41.128Z,7.70
2018-12-15T06:10:09.246Z,9.65
2018-12-15T06:12:37.400Z,7.25
2018-12-15T06:15:06.392Z,8.33
2018-12-15T06:17:34.508Z,8.53
2018-12-15T06:20:02.683Z,8.25
2018-12-15T06:22:30.816Z,7.78
2018-12-15T06:24:58.974Z,7.87
2018-12-15T06:27:27.126Z,7.33
2018-12-15T06:29:55.371Z,8.65
2018-12-15T06:32:23.512Z,8.13
2018-12-15T06:34:51.642Z,8.65
2018-12-15T06:37:19.760Z,9.13
2018-12-15T06:39:47.882Z,11.03
2018-12-15T06:42:16.009Z,9.90
2018-12-15T06:44:44.172Z,6.22
2018-12-15T06:47:12.285Z,8.40
2018-12-15T06:49:40.486Z,8.53
2018-12-15T06:52:08.742Z,9.40
2018-12-15T06:54:36.893Z,10.95
2018-12-15T06:57:05.034Z,9.90
2018-12-15T06:59:33.218Z,10.38
2018-12-15T07:02:01.340Z,8.85
2018-12-15T07:04:29.471Z,8.78
2018-12-15T07:06:57.600Z,10.95
2018-12-15T07:09:25.815Z,8.70
2018-12-15T07:11:53.948Z,8.53
2018-12-15T07:14:22.100Z,8.73
2018-12-15T07:16:50.236Z,7.92
2018-12-15T07:19:18.396Z,9.45
2018-12-15T07:21:46.681Z,9.80
2018-12-15T07:24:14.976Z,10.00
2018-12-15T07:26:43.117Z,10.05
2018-12-15T07:29:11.432Z,10.70
2018-12-15T07:31:39.548Z,12.15
2018-12-15T07:34:07.670Z,11.20
2018-12-15T07:36:35.832Z,12.13
2018-12-15T07:39:06.528Z,17.02
2018-12-15T07:41:34.676Z,17.05
2018-12-15T07:44:02.856Z,24.07
2018-12-15T07:46:30.985Z,26.23
2018-12-15T07:48:59.132Z,11.60
2018-12-15T07:51:27.312Z,13.72
2018-12-15T07:53:55.501Z,12.03
2018-12-15T07:56:26.599Z,10.20
2018-12-15T07:58:55.395Z,11.73
2018-12-15T08:01:23.525Z,13.28
2018-12-15T08:03:51.743Z,10.50
2018-12-15T08:06:20.021Z,10.75
2018-12-15T08:08:48.255Z,10.88
2018-12-15T08:13:26.094Z,8.88
2018-12-15T08:15:54.241Z,10.48
2018-12-15T08:18:22.356Z,9.20
2018-12-15T08:20:50.591Z,10.32
2018-12-15T08:23:18.704Z,10.55
2018-12-15T08:25:46.824Z,10.63
2018-12-15T08:28:15.035Z,10.82
2018-12-15T08:30:43.132Z,9.40
2018-12-15T08:33:11.279Z,9.25
2018-12-15T08:35:39.424Z,10.53
2018-12-15T08:38:07.548Z,12.60
2018-12-15T08:40:35.656Z,11.85
2018-12-15T08:43:03.828Z,10.68
2018-12-15T08:45:32.020Z,9.90
2018-12-15T08:48:00.145Z,13.25
2018-12-15T08:50:28.316Z,12.47
2018-12-15T08:52:56.627Z,13.40
2018-12-15T08:55:24.784Z,11.30
2018-12-15T08:57:53.029Z,13.75
2018-12-15T09:00:21.136Z,13.20
2018-12-15T09:02:49.340Z,11.43
2018-12-15T09:05:17.528Z,10.68
2018-12-15T09:07:45.701Z,12.20
2018-12-15T09:10:13.812Z,11.40
2018-12-15T09:12:41.990Z,15.20
2018-12-15T09:15:10.104Z,13.95
2018-12-15T09:17:38.229Z,13.75
2018-12-15T09:20:06.577Z,11.90
2018-12-15T09:22:34.702Z,12.53
2018-12-15T09:25:02.861Z,14.18
2018-12-15T09:27:31.012Z,13.50
2018-12-15T09:29:59.309Z,12.63
2018-12-15T09:32:27.607Z,12.53
2018-12-15T09:34:55.728Z,13.18
2018-12-15T09:37:23.860Z,11.68
2018-12-15T09:39:52.020Z,15.58
2018-12-15T09:44:42.396Z,16.37
2018-12-15T09:47:10.553Z,13.32
2018-12-15T09:49:38.665Z,15.98
2018-12-15T09:52:06.823Z,14.93
2018-12-15T09:54:34.941Z,14.65
2018-12-15T09:57:03.196Z,16.65
2018-12-15T09:59:31.344Z,15.00
2018-12-15T10:01:59.457Z,15.28
2018-12-15T10:04:27.570Z,17.35
2018-12-15T10:06:55.817Z,16.48
2018-12-15T10:09:24.004Z,17.65
2018-12-15T10:11:52.163Z,15.88
2018-12-15T10:14:20.315Z,15.38
2018-12-15T10:16:48.468Z,16.27
2018-12-15T10:19:16.584Z,15.63
2018-12-15T10:21:44.701Z,15.00
2018-12-15T10:24:12.808Z,14.75
2018-12-15T10:26:41.068Z,17.55
2018-12-15T10:29:13.438Z,18.50
2018-12-15T10:31:47.136Z,16.67
2018-12-15T10:34:15.247Z,15.05
2018-12-15T10:36:43.426Z,17.40
2018-12-15T10:39:11.623Z,16.80
2018-12-15T10:41:39.719Z,17.27
2018-12-15T10:44:07.791Z,18.42
2018-12-15T10:46:36.180Z,16.25
2018-12-15T10:49:04.399Z,17.12
2018-12-15T10:51:32.556Z,19.17
2018-12-15T10:54:00.721Z,17.00
2018-12-15T10:56:28.838Z,19.40
2018-12-15T11:01:32.596Z,19.65
2018-12-15T11:04:00.990Z,18.87
2018-12-15T11:06:29.128Z,15.85
2018-12-15T11:08:57.304Z,17.30
2018-12-15T11:11:25.975Z,17.92
2018-12-15T11:13:54.072Z,18.45
2018-12-15T11:16:22.239Z,19.70
2018-12-15T11:18:50.373Z,16.25
2018-12-15T11:21:18.480Z,19.95
2018-12-15T11:23:46.636Z,19.35
2018-12-15T11:26:14.788Z,18.70
2018-12-15T11:28:42.901Z,17.65
2018-12-15T11:31:11.057Z,17.75
2018-12-15T11:33:39.154Z,16.80
2018-12-15T11:36:07.321Z,19.77
2018-12-15T11:38:35.466Z,17.57
2018-12-15T11:41:03.612Z,18.40
2018-12-15T11:43:31.803Z,18.35
2018-12-15T11:45:59.916Z,17.50
2018-12-15T11:48:28.064Z,17.55
2018-12-15T11:53:27.396Z,19.48
2018-12-15T11:55:55.567Z,15.00
2018-12-15T11:58:23.802Z,17.12
2018-12-15T12:00:52.036Z,19.87
2018-12-15T12:03:20.180Z,17.10
2018-12-15T12:05:48.341Z,19.00
2018-12-15T12:08:16.441Z,17.12
2018-12-15T12:10:44.616Z,18.73
2018-12-15T12:13:12.891Z,20.48
2018-12-15T12:15:41.010Z,20.25
2018-12-15T12:18:09.219Z,20.37
2018-12-15T12:20:37.377Z,16.02
2018-12-15T12:23:05.488Z,17.98
2018-12-15T12:25:33.751Z,17.40
2018-12-15T12:28:02.016Z,16.95
2018-12-15T12:30:30.207Z,17.87
2018-12-15T12:32:59.402Z,20.20
2018-12-15T12:35:27.837Z,18.45
2018-12-15T12:37:56.031Z,16.60
2018-12-15T12:40:24.148Z,17.23
2018-12-15T12:42:52.334Z,14.55
2018-12-15T12:45:20.501Z,18.07
2018-12-15T12:47:48.608Z,18.92
2018-12-15T12:50:16.768Z,16.57
2018-12-15T12:52:44.916Z,16.55
2018-12-15T12:55:13.031Z,18.35
2018-12-15T12:57:41.211Z,16.42
2018-12-15T13:00:09.496Z,17.45
2018-12-15T13:02:37.604Z,16.48
2018-12-15T13:05:06.009Z,16.67
2018-12-15T13:07:34.160Z,16.23
2018-12-15T13:10:02.376Z,20.27
2018-12-15T13:12:30.544Z,16.52
2018-12-15T13:14:58.648Z,17.98
2018-12-15T13:17:26.773Z,18.50
2018-12-15T13:19:54.915Z,17.48
2018-12-15T13:22:23.044Z,19.12
2018-12-15T13:24:51.239Z,17.40
2018-12-15T13:27:19.460Z,17.00
2018-12-15T13:29:47.579Z,17.12
2018-12-15T13:32:15.693Z,18.10
2018-12-15T13:34:43.862Z,18.57
2018-12-15T13:37:12.080Z,17.15
2018-12-15T13:39:40.312Z,18.77
2018-12-15T13:42:08.467Z,18.13
2018-12-15T13:44:36.581Z,18.05
2018-12-15T13:47:04.695Z,19.57
2018-12-15T13:49:32.859Z,19.80
2018-12-15T13:52:00.959Z,19.00
2018-12-15T13:54:29.069Z,20.48
2018-12-15T13:56:57.236Z,17.02
2018-12-15T13:59:25.358Z,18.67
2018-12-15T14:01:53.460Z,18.10
2018-12-15T14:04:21.616Z,18.98
2018-12-15T14:06:49.729Z,18.23
2018-12-15T14:09:17.922Z,18.42
2018-12-15T14:11:46.188Z,19.55
2018-12-15T14:14:14.593Z,19.95
2018-12-15T14:16:59.512Z,17.35
2018-12-15T14:19:27.681Z,18.82
2018-12-15T14:21:55.869Z,20.37
2018-12-15T14:24:24.163Z,18.92
2018-12-15T14:26:52.326Z,18.37
2018-12-15T14:29:20.431Z,16.10
2018-12-15T14:31:48.544Z,21.73
2018-12-15T14:34:16.702Z,18.10
2018-12-15T14:36:44.804Z,23.87
2018-12-15T14:39:12.912Z,20.48
2018-12-15T14:41:41.077Z,17.95
2018-12-15T14:44:09.187Z,17.30
2018-12-15T14:46:37.301Z,23.87
2018-12-15T14:49:05.460Z,19.82
2018-12-15T14:51:33.563Z,22.95
2018-12-15T14:54:01.714Z,19.02
2018-12-15T14:56:29.969Z,19.57
2018-12-15T14:58:58.071Z,19.55
2018-12-15T15:01:26.186Z,21.60
2018-12-15T15:03:54.331Z,20.92
2018-12-15T15:06:22.517Z,18.57
2018-12-15T15:08:50.620Z,23.70
2018-12-15T15:11:18.799Z,21.68
2018-12-15T15:13:46.911Z,19.85
2018-12-15T15:16:15.027Z,19.70
2018-12-15T15:18:43.282Z,20.82
2018-12-15T15:21:11.408Z,20.97
2018-12-15T15:23:39.540Z,20.85
2018-12-15T15:26:07.814Z,19.77
2018-12-15T15:28:35.925Z,19.73
2018-12-15T15:31:04.078Z,18.85
2018-12-15T15:33:32.247Z,18.10
2018-12-15T15:36:00.420Z,20.30
2018-12-15T15:38:28.551Z,20.12
2018-12-15T15:40:56.727Z,22.60
2018-12-15T15:43:31.316Z,27.52
2018-12-15T15:45:59.489Z,34.70
2018-12-15T15:48:27.612Z,22.77
2018-12-15T15:50:55.775Z,19.87
2018-12-15T15:53:24.120Z,21.00
2018-12-15T15:55:52.235Z,20.10
2018-12-15T15:58:20.368Z,20.95
2018-12-15T16:00:48.560Z,21.45
2018-12-15T16:03:16.695Z,20.80
2018-12-15T16:05:44.851Z,20.15
2018-12-15T16:08:13.118Z,20.12
2018-12-15T16:10:41.237Z,21.15
2018-12-15T16:13:09.376Z,21.40
2018-12-15T16:15:37.646Z,20.35
2018-12-15T16:18:05.775Z,22.73
2018-12-15T16:20:33.904Z,21.73
2018-12-15T16:23:02.068Z,22.15
2018-12-15T16:25:30.184Z,20.85
2018-12-15T16:27:58.376Z,20.45
2018-12-15T16:30:26.532Z,26.25
2018-12-15T16:32:54.696Z,22.30
2018-12-15T16:35:22.864Z,22.65
2018-12-15T16:37:50.984Z,24.02
2018-12-15T16:40:19.211Z,20.37
2018-12-15T16:42:47.330Z,22.25
2018-12-15T16:45:15.476Z,21.68
2018-12-15T16:47:43.664Z,20.88
2018-12-15T16:50:13.317Z,21.85
2018-12-15T16:52:41.824Z,21.93
2018-12-15T16:55:10.393Z,23.12
2018-12-15T16:57:38.650Z,22.95
2018-12-15T17:00:10.469Z,19.92
2018-12-15T17:02:38.776Z,22.17
2018-12-15T17:05:06.913Z,23.12
2018-12-15T17:07:35.184Z,23.00
2018-12-15T17:10:04.349Z,20.80
2018-12-15T17:12:32.526Z,24.30
2018-12-15T17:15:00.716Z,23.70
2018-12-15T17:17:28.853Z,21.95
2018-12-15T17:19:57.040Z,24.23
2018-12-15T17:22:25.260Z,24.85
2018-12-15T17:24:53.392Z,24.35
2018-12-15T17:27:28.280Z,24.23
2018-12-15T17:29:56.432Z,22.45
2018-12-15T17:32:24.552Z,23.57
2018-12-15T17:34:52.818Z,27.67
2018-12-15T17:37:20.949Z,33.23
2018-12-15T17:39:49.103Z,26.37
2018-12-15T17:42:17.285Z,23.87
2018-12-15T17:44:45.414Z,23.25
2018-12-15T17:47:13.559Z,23.32
2018-12-15T17:49:41.728Z,25.08
2018-12-15T17:52:10.096Z,26.52
2018-12-15T17:54:38.257Z,23.47
2018-12-15T17:57:06.675Z,27.30
2018-12-15T17:59:34.852Z,33.40
2018-12-15T18:02:03.118Z,30.50
2018-12-15T18:04:31.330Z,25.72
2018-12-15T18:06:59.370Z,27.35
2018-12-15T18:09:27.651Z,34.67
2018-12-15T18:11:55.818Z,26.42
2018-12-15T18:14:24.047Z,27.85
2018-12-15T18:16:52.290Z,24.87
2018-12-15T18:19:20.532Z,27.20
2018-12-15T18:21:48.645Z,24.87
2018-12-15T18:24:16.768Z,26.77
2018-12-15T18:26:44.950Z,28.57
2018-12-15T18:29:13.136Z,25.92
2018-12-15T18:31:41.440Z,24.07
2018-12-15T18:34:09.647Z,27.07
2018-12-15T18:36:37.821Z,27.58
2018-12-15T18:39:07.248Z,26.33
2018-12-15T18:41:35.453Z,30.85
2018-12-15T18:44:03.708Z,25.72
2018-12-15T18:46:31.924Z,28.35
2018-12-15T18:49:00.120Z,27.70
2018-12-15T18:51:28.233Z,25.30
2018-12-15T18:53:56.568Z,26.65
2018-12-15T18:56:24.878Z,29.35
2018-12-15T18:58:53.274Z,26.87
2018-12-15T19:01:21.487Z,28.92
2018-12-15T19:03:49.623Z,28.12
2018-12-15T19:06:17.752Z,28.00
2018-12-15T19:08:45.959Z,25.82
2018-12-15T19:11:14.219Z,28.05
2018-12-15T19:13:42.356Z,26.60
2018-12-15T19:16:10.561Z,29.48
2018-12-15T19:18:38.693Z,27.52
2018-12-15T19:21:08.184Z,27.80
2018-12-15T19:23:36.583Z,28.87
2018-12-15T19:26:04.716Z,27.22
2018-12-15T19:28:32.783Z,29.63
2018-12-15T19:31:01.093Z,27.85
2018-12-15T19:33:29.237Z,29.27
2018-12-15T19:35:58.369Z,29.95
2018-12-15T19:38:26.538Z,30.48
2018-12-15T19:40:54.737Z,27.85
2018-12-15T19:43:22.880Z,26.57
2018-12-15T19:45:51.097Z,31.48
2018-12-15T19:48:19.256Z,27.90
2018-12-15T19:50:47.384Z,29.82
2018-12-15T19:53:15.622Z,29.07
2018-12-15T19:55:43.770Z,29.48
2018-12-15T19:58:11.942Z,30.60
2018-12-15T20:00:40.236Z,29.25
2018-12-15T20:03:08.387Z,29.90
2018-12-15T20:05:36.501Z,28.55
2018-12-15T20:08:04.686Z,30.20
2018-12-15T20:10:32.807Z,30.95
2018-12-15T20:13:01.029Z,32.33
2018-12-15T20:15:29.223Z,31.35
2018-12-15T20:17:57.400Z,30.70
2018-12-15T20:20:25.598Z,30.92
2018-12-15T20:22:53.791Z,30.40
2018-12-15T20:25:22.017Z,31.23
2018-12-15T20:27:50.133Z,29.57
2018-12-15T20:30:18.360Z,32.33
2018-12-15T20:32:46.513Z,33.38
2018-12-15T20:35:14.632Z,29.80
2018-12-15T20:37:42.864Z,30.08
2018-12-15T20:40:11.012Z,28.50
2018-12-15T20:42:39.149Z,28.65
2018-12-15T20:45:07.425Z,29.45
2018-12-15T20:47:35.528Z,31.10
2018-12-15T20:50:04.120Z,28.55
2018-12-15T20:52:32.320Z,30.45
2018-12-15T20:55:00.452Z,27.87
2018-12-15T20:57:28.545Z,26.55
2018-12-15T20:59:56.728Z,28.87
2018-12-15T21:02:24.847Z,27.73
2018-12-15T21:04:52.988Z,27.02
2018-12-15T21:07:21.429Z,28.15
2018-12-15T21:09:49.563Z,28.52
2018-12-15T21:12:17.695Z,29.40
2018-12-15T21:14:45.874Z,29.98
2018-12-15T21:17:14.004Z,31.10
2018-12-15T21:19:47.668Z,26.68
2018-12-15T21:22:12.488Z,29.20
2018-12-15T21:24:40.621Z,29.98
2018-12-15T21:27:08.823Z,28.87
2018-12-15T21:29:37.004Z,29.00
2018-12-15T21:32:05.128Z,28.52
2018-12-15T21:34:33.311Z,28.92
2018-12-15T21:37:01.489Z,29.35
2018-12-15T21:39:29.566Z,30.65
2018-12-15T21:41:57.715Z,28.10
2018-12-15T21:44:25.876Z,32.03
2018-12-15T21:46:54.004Z,31.05
2018-12-15T21:49:22.120Z,32.65
2018-12-15T21:51:56.133Z,29.18
2018-12-15T21:54:20.441Z,32.80
2018-12-15T21:56:48.576Z,34.08
2018-12-15T21:59:16.677Z,33.53
2018-12-15T22:01:44.917Z,32.73
2018-12-15T22:04:13.017Z,35.17
2018-12-15T22:06:41.125Z,31.23
2018-12-15T22:09:09.266Z,34.05
2018-12-15T22:11:37.372Z,40.35
2018-12-15T22:14:05.480Z,32.70
2018-12-15T22:16:33.628Z,34.83
2018-12-15T22:19:01.732Z,33.00
2018-12-15T22:21:29.841Z,34.83
2018-12-15T22:23:58.080Z,30.20
2018-12-15T22:26:26.231Z,33.38
2018-12-15T22:28:54.332Z,31.97
2018-12-15T22:31:22.452Z,30.02
2018-12-15T22:33:50.616Z,28.90
2018-12-15T22:36:18.720Z,32.53
2018-12-15T22:38:46.828Z,32.70
2018-12-15T22:41:14.956Z,29.30
2018-12-15T22:43:43.061Z,30.40
2018-12-15T22:48:54.376Z,31.15
2018-12-15T22:51:22.628Z,29.42
2018-12-15T22:53:50.796Z,30.57
2018-12-15T22:56:18.944Z,31.02
2018-12-15T22:58:47.077Z,30.37
2018-12-15T23:01:15.605Z,28.80
2018-12-15T23:03:43.770Z,29.15
2018-12-15T23:06:11.941Z,29.23
2018-12-15T23:08:40.127Z,29.15
2018-12-15T23:11:08.230Z,28.50
2018-12-15T23:13:36.350Z,27.73
2018-12-15T23:16:04.525Z,27.05
2018-12-15T23:18:32.659Z,24.35
2018-12-15T23:21:00.789Z,25.17
2018-12-15T23:23:28.964Z,26.73
2018-12-15T23:25:57.192Z,24.82
2018-12-15T23:28:25.331Z,27.20
2018-12-15T23:30:53.501Z,27.62
2018-12-15T23:33:21.655Z,24.85
2018-12-15T23:35:49.781Z,22.32
2018-12-15T23:38:17.896Z,24.70
2018-12-15T23:40:46.056Z,23.73
2018-12-15T23:43:14.177Z,25.75
2018-12-15T23:45:42.336Z,27.00
2018-12-15T23:48:10.509Z,26.17
2018-12-15T23:50:38.611Z,24.30
2018-12-15T23:53:06.740Z,23.10
2018-12-15T23:55:35.005Z,25.05
2018-12-15T23:58:03.128Z,25.30
